Petersburg, AK

11:53 PM AKDT on August 01, 2014 (GMT -0800)
Johnson Petersburg (PAPG) Elev 0 ft | 56.82 °N, 132.97 °W | Change Station

Current weather conditions updated 17 minutes ago

Clear
Clear
54 °F
Feels Like 54 °F
N
0
Wind Variable Wind from North

Tomorrow is forecast to be Much Warmer than today.

Today
High -- | Low -- °F
--% Chance of Precip.
Yesterday
High -- | Low -- °F
Precip. -- in
4:53 AM 9:04 PM
Waxing Crescent, 33% visible
Pressure 30.10 in
Visibility 10.0 miles
Clouds Clear
Dew Point 48 °F
Humidity 82%
Rainfall 0.00 in
Snow Depth Not available.
UV 0 out of 12
Pollen Not available.
Air Quality Not available.
Flu Activity Not available.
METAR PAPG 020736Z 00000KT 10SM CLR 12/09 A3010 RMK AO1

More Conditions Fewer Conditions

Pressure 30.10 in
Visibility 10.0 miles
Clouds Clear
Dew Point 48 °F
Humidity 82%
Rainfall 0.00 in
Snow Depth Not available.
UV 0 out of 12
Pollen Not available.
Air Quality Not available.
Flu Activity Not available.
METAR PAPG 020736Z 00000KT 10SM CLR 12/09 A3010 RMK AO1

More Conditions Fewer Conditions

10-Day Weather Forecast

Almanac

Astronomy

Aug. 01, 2014 Rise Set
Actual Time 4:53 AM AKDT 9:04 PM AKDT
Civil Twilight 4:02 AM AKDT 9:54 PM AKDT
Nautical Twilight 2:44 AM AKDT 11:11 PM AKDT
Astronomical Twilight 1:32 AM AKDT 12:27 AM AKDT
Moon 11:40 AM AKDT (8/1) 10:32 PM AKDT (8/1)
Length of Visible Light 17h 52m
Length of Day
16h 11m
Tomorrow will be 4m 5s shorter.
Waxing Crescent, 33% of the Moon is Illuminated
Aug 2
Waxing Crescent
Aug 3
First Quarter
Aug 10
Full
Aug 17
Last Quarter
Aug 25
New

Community

WunderPhotos

Upload Photos

1,739,843 photos uploaded!

Nearby

Snow Depth

Station Depth Elevation
Long Lake 0 in 820 ft
Upper Tsaina River 0 in 1750 ft
Moraine 0 in 2100 ft
Grandview 0 in 1100 ft
Grouse Creek Divide 0 in 700 ft

Earthquake Activity

City Distance Mag. Time & Date
No recent earthquake activity has been reported nearby.
Minimum magnitude displayed is 2.5.

Coastal Water Temperatures

Place Temperature
No Stations Reporting

Nearby Weather Stations

Station Location Temp. Dew Point Humidity Wind Precip. Elev Updated Type
RAWS KAKE AK, Kake, AK 51 °F 48 °F 88% North  at  0 mph 0.00 in / hr 399 ft 10:55 PM AKDT MADIS
Papke's Landing, Petersburg, AK 53.8 °F 51 °F 90% WSW  at  0.0 mph - / hr 75 ft 11:41 PM AKDT Normal

Show More Stations Show Fewer Stations